Dora, Oregon
Current Conditions -  °F | °C
As of 7:55 AM on Friday 31 Oct 2014 (Local Time) from KOTH Reporting Station
Broken Clouds Broken Clouds  
Wind Chill: 52°   Ceiling: 8000
Heat Index: 52°   Visibility: 10mi
Dew Point: 52°   Wind: 6mph
Humidity: 100%   Direction: 160°SSE
Pressure: 29.84"   Gusts: NA
Location:  43.16°N, 123.96°W
Report Text: KOTH 311455Z 16005KT 10SM SCT070 BKN080 11/11 A2984 RMK AO1 P0004 60009 52010
Loading
Personal Weather Stations






























Interactive Weather Map
Tropical Storm Tracking
New forecast layout! Learn more

10-Day Weather Forecast

Advertisements
Track Severe Weather on mobile